Time;durP1;ratioP1;P1;durP2;ratioP2;P2;SDS_P1;SDS_P2;PMS_P1;PMS_P2;Temp;Humidity;BMP_temperature;BMP_pressure;BME280_temperature;BME280_humidity;BME280_pressure;Samples;Min_cycle;Max_cycle;Signal;HPM_P1;HPM_P2
2023/08/03 00:00:20;;;;;;;10.50;2.40;;;16.90;88.90;;;;;;5064244;28;20185;-56
2023/08/03 00:02:46;;;;;;;16.87;2.83;;;16.90;88.30;;;;;;5065362;28;20244;-57
2023/08/03 00:05:16;;;;;;;14.73;2.70;;;16.90;87.80;;;;;;5064193;28;20182;-57
2023/08/03 00:07:43;;;;;;;7.27;2.13;;;16.90;87.50;;;;;;5068442;28;20464;-57
2023/08/03 00:10:09;;;;;;;9.03;2.73;;;16.90;85.50;;;;;;5064127;28;20420;-57
2023/08/03 00:12:34;;;;;;;9.10;3.50;;;16.90;80.00;;;;;;5064988;28;20466;-56
2023/08/03 00:15:00;;;;;;;7.37;2.07;;;17.00;81.30;;;;;;5057949;28;20708;-57
2023/08/03 00:17:25;;;;;;;8.70;2.23;;;17.00;78.30;;;;;;5063097;28;20216;-57
2023/08/03 00:19:51;;;;;;;7.83;2.67;;;17.00;79.70;;;;;;5065603;28;20170;-56
2023/08/03 00:22:17;;;;;;;9.40;2.17;;;17.00;78.50;;;;;;5059635;28;20202;-56
2023/08/03 00:24:42;;;;;;;7.53;2.23;;;17.00;77.50;;;;;;5064694;28;21081;-57
2023/08/03 00:27:08;;;;;;;6.57;1.93;;;17.00;77.70;;;;;;5065407;28;20171;-58
2023/08/03 00:29:33;;;;;;;12.23;2.97;;;16.90;77.10;;;;;;5053575;28;20175;-56
2023/08/03 00:32:02;;;;;;;7.83;2.17;;;16.90;75.50;;;;;;5065671;28;20420;-57
2023/08/03 00:34:30;;;;;;;7.07;2.07;;;16.90;75.40;;;;;;5060262;28;20312;-57
2023/08/03 00:36:56;;;;;;;7.37;2.07;;;16.90;75.40;;;;;;5064062;28;20424;-58
2023/08/03 00:39:22;;;;;;;8.40;1.77;;;16.90;74.80;;;;;;5067951;28;21098;-58
2023/08/03 00:41:47;;;;;;;7.20;2.20;;;16.90;75.00;;;;;;5062684;28;20297;-58
2023/08/03 00:44:13;;;;;;;12.77;2.20;;;16.90;75.20;;;;;;5062445;28;20174;-58
2023/08/03 00:46:39;;;;;;;8.53;2.10;;;16.90;76.10;;;;;;5051696;28;20179;-58
2023/08/03 00:49:04;;;;;;;14.83;2.50;;;16.90;76.10;;;;;;5052636;28;20175;-58
2023/08/03 00:51:30;;;;;;;9.40;2.50;;;16.90;74.90;;;;;;5058726;28;20654;-58
2023/08/03 00:53:56;;;;;;;10.40;2.10;;;16.90;75.40;;;;;;5060054;28;20228;-58
2023/08/03 00:56:22;;;;;;;7.07;2.03;;;16.90;74.00;;;;;;5057822;28;20174;-57
2023/08/03 00:58:47;;;;;;;13.20;2.10;;;16.90;74.00;;;;;;5058617;28;20273;-57
2023/08/03 01:01:13;;;;;;;9.03;2.17;;;16.80;74.60;;;;;;5062947;28;20214;-57
2023/08/03 01:03:38;;;;;;;11.83;2.37;;;16.80;73.60;;;;;;5067331;28;20229;-58
2023/08/03 01:06:04;;;;;;;19.33;3.17;;;16.80;73.80;;;;;;5057172;28;20591;-60
2023/08/03 01:08:30;;;;;;;10.77;2.33;;;16.80;72.50;;;;;;5060815;28;20179;-57
2023/08/03 01:10:56;;;;;;;6.30;2.03;;;16.80;73.70;;;;;;5065059;28;20167;-57
2023/08/03 01:13:22;;;;;;;8.17;2.27;;;16.80;71.80;;;;;;5056750;28;20643;-60
2023/08/03 01:15:48;;;;;;;13.47;2.80;;;16.80;70.70;;;;;;5059161;28;20258;-60
2023/08/03 01:18:13;;;;;;;9.63;2.30;;;16.80;71.00;;;;;;5058829;28;21049;-59
2023/08/03 01:20:41;;;;;;;8.33;2.53;;;16.80;70.30;;;;;;5065693;28;20589;-59
2023/08/03 01:23:08;;;;;;;5.77;2.07;;;16.80;68.00;;;;;;5063170;28;20202;-58
2023/08/03 01:25:35;;;;;;;6.70;2.30;;;16.80;68.00;;;;;;5062489;28;20829;-56
2023/08/03 01:28:03;;;;;;;7.17;2.40;;;16.80;68.00;;;;;;5062991;28;20433;-58
2023/08/03 01:30:29;;;;;;;4.73;1.83;;;16.80;67.70;;;;;;5061760;28;20519;-58
2023/08/03 01:32:55;;;;;;;9.33;2.37;;;16.70;67.50;;;;;;5064157;28;20622;-57
2023/08/03 01:35:20;;;;;;;8.53;2.20;;;16.70;67.00;;;;;;5059525;28;20183;-57
2023/08/03 01:37:46;;;;;;;4.10;1.80;;;16.70;65.20;;;;;;5064996;28;20576;-56
2023/08/03 01:40:13;;;;;;;8.93;1.70;;;16.70;65.50;;;;;;5065813;28;20243;-57
2023/08/03 01:42:39;;;;;;;9.43;2.80;;;16.70;65.60;;;;;;5061855;28;20820;-57
2023/08/03 01:45:06;;;;;;;15.73;2.70;;;16.70;66.30;;;;;;5065489;28;20417;-58
2023/08/03 01:47:32;;;;;;;8.13;2.40;;;16.70;65.40;;;;;;5054199;28;21010;-56
2023/08/03 01:49:57;;;;;;;5.27;1.80;;;16.70;66.20;;;;;;5061936;28;20531;-57
2023/08/03 01:52:23;;;;;;;5.97;2.07;;;16.70;66.50;;;;;;5057096;28;20288;-56
2023/08/03 01:54:48;;;;;;;13.83;2.67;;;16.70;65.40;;;;;;5058008;28;20179;-58
2023/08/03 01:57:17;;;;;;;4.03;1.73;;;16.60;65.20;;;;;;5062962;28;20655;-57
2023/08/03 01:59:44;;;;;;;6.37;1.80;;;16.60;65.60;;;;;;5067958;28;20188;-58
2023/08/03 02:02:09;;;;;;;6.73;1.80;;;16.60;65.30;;;;;;5056787;28;20559;-57
2023/08/03 02:04:35;;;;;;;5.17;1.77;;;16.60;66.30;;;;;;5060338;28;21366;-56
2023/08/03 02:07:12;;;;;;;10.30;1.77;;;16.60;66.00;;;;;;5052637;28;20178;-57
2023/08/03 02:09:37;;;;;;;4.73;2.03;;;16.60;66.30;;;;;;5058987;28;20178;-58
2023/08/03 02:12:03;;;;;;;3.37;1.50;;;16.50;65.90;;;;;;5060985;28;20482;-58
2023/08/03 02:14:28;;;;;;;6.60;1.63;;;16.50;66.50;;;;;;5062094;28;20196;-57
2023/08/03 02:16:54;;;;;;;7.07;2.10;;;16.50;67.00;;;;;;5065208;28;20194;-57
2023/08/03 02:19:20;;;;;;;5.93;2.20;;;16.50;67.30;;;;;;5061949;28;20186;-57
2023/08/03 02:21:45;;;;;;;8.60;1.90;;;16.40;67.70;;;;;;5062820;28;20206;-56
2023/08/03 02:24:12;;;;;;;7.53;1.80;;;16.40;67.60;;;;;;5066237;28;20178;-60
2023/08/03 02:26:37;;;;;;;7.47;1.70;;;16.40;68.10;;;;;;5062489;28;20186;-58
2023/08/03 02:29:03;;;;;;;4.03;1.60;;;16.40;68.10;;;;;;5063419;28;20444;-58
2023/08/03 02:31:28;;;;;;;7.47;1.80;;;16.30;68.40;;;;;;5063056;28;20810;-57
2023/08/03 02:33:54;;;;;;;7.43;2.00;;;16.30;68.50;;;;;;5063098;28;20182;-56
2023/08/03 02:36:19;;;;;;;9.83;1.80;;;16.30;68.40;;;;;;5061556;28;20659;-56
2023/08/03 02:38:45;;;;;;;7.13;2.00;;;16.30;68.90;;;;;;5060392;28;20218;-57
2023/08/03 02:41:11;;;;;;;6.30;1.80;;;16.30;69.50;;;;;;5064775;28;20186;-57
2023/08/03 02:43:36;;;;;;;7.10;1.70;;;16.30;70.00;;;;;;5051785;28;20808;-57
2023/08/03 02:46:02;;;;;;;6.57;2.00;;;16.20;71.20;;;;;;5062639;28;20197;-57
2023/08/03 02:48:27;;;;;;;6.33;1.97;;;16.20;71.10;;;;;;5062088;28;20667;-57
2023/08/03 02:50:53;;;;;;;16.73;1.90;;;16.20;71.30;;;;;;5062679;28;20201;-57
2023/08/03 02:53:18;;;;;;;8.00;1.83;;;16.20;72.20;;;;;;5066327;28;20206;-58
2023/08/03 02:55:44;;;;;;;7.07;1.97;;;16.10;71.90;;;;;;5064937;28;20711;-57
2023/08/03 02:58:10;;;;;;;8.80;2.17;;;16.10;73.00;;;;;;5069998;28;20225;-58
2023/08/03 03:00:35;;;;;;;6.93;2.50;;;16.10;73.50;;;;;;5055230;28;20573;-57
2023/08/03 03:03:01;;;;;;;7.30;1.80;;;16.10;73.50;;;;;;5067628;28;20221;-58
2023/08/03 03:05:26;;;;;;;2.83;1.30;;;16.00;72.60;;;;;;5070953;28;20587;-57
2023/08/03 03:07:52;;;;;;;3.93;1.60;;;16.00;72.20;;;;;;5067802;28;20187;-59
2023/08/03 03:10:17;;;;;;;6.10;1.47;;;16.00;71.60;;;;;;5062239;28;20257;-57
2023/08/03 03:12:43;;;;;;;4.87;1.67;;;16.00;71.90;;;;;;5064445;28;20202;-58
2023/08/03 03:15:09;;;;;;;11.97;1.87;;;16.00;72.30;;;;;;5063640;28;20206;-57
2023/08/03 03:17:35;;;;;;;4.43;1.90;;;15.90;73.30;;;;;;5069193;28;20566;-58
2023/08/03 03:20:00;;;;;;;10.10;1.70;;;15.90;73.70;;;;;;5061021;28;20417;-58
2023/08/03 03:22:26;;;;;;;5.60;2.23;;;15.90;73.40;;;;;;5068263;28;20772;-59
2023/08/03 03:24:51;;;;;;;5.03;1.70;;;15.90;73.10;;;;;;5062314;28;20175;-58
2023/08/03 03:27:17;;;;;;;8.87;1.53;;;15.90;73.10;;;;;;5060483;28;20171;-57
2023/08/03 03:29:42;;;;;;;6.93;1.30;;;15.90;73.50;;;;;;5052916;28;20309;-58
2023/08/03 03:32:08;;;;;;;7.83;1.77;;;15.90;73.60;;;;;;5056741;28;20211;-58
2023/08/03 03:34:33;;;;;;;1.33;1.20;;;15.90;74.10;;;;;;5068496;28;20660;-58
2023/08/03 03:36:59;;;;;;;3.67;1.20;;;15.90;73.00;;;;;;5058934;28;20233;-58
2023/08/03 03:39:25;;;;;;;2.90;1.10;;;15.90;72.30;;;;;;5066193;28;20193;-56
2023/08/03 03:41:50;;;;;;;3.40;1.13;;;15.90;72.60;;;;;;5059728;28;20217;-57
2023/08/03 03:44:16;;;;;;;3.77;1.37;;;15.90;72.80;;;;;;5056791;28;20185;-58
2023/08/03 03:46:41;;;;;;;5.63;1.83;;;15.90;73.90;;;;;;5061329;28;20186;-58
2023/08/03 03:49:07;;;;;;;3.00;1.30;;;15.90;74.40;;;;;;5059120;28;20182;-60
2023/08/03 03:51:32;;;;;;;7.03;1.37;;;15.90;74.90;;;;;;5060826;28;20226;-58
2023/08/03 03:53:58;;;;;;;5.33;1.37;;;15.80;75.80;;;;;;5061792;28;20190;-58
2023/08/03 03:56:24;;;;;;;5.17;1.40;;;15.80;76.50;;;;;;5048927;28;20204;-58
2023/08/03 03:58:49;;;;;;;4.63;1.40;;;15.80;76.80;;;;;;5060511;28;20198;-58
2023/08/03 04:01:15;;;;;;;7.67;1.53;;;15.80;77.70;;;;;;5053399;28;20206;-58
2023/08/03 04:03:40;;;;;;;6.83;1.50;;;15.80;78.60;;;;;;5056069;28;20556;-58
2023/08/03 04:06:06;;;;;;;8.27;1.47;;;15.80;79.30;;;;;;5053808;28;20254;-57
2023/08/03 04:08:31;;;;;;;4.07;1.30;;;15.80;78.90;;;;;;5048233;28;20701;-57
2023/08/03 04:10:57;;;;;;;6.40;1.80;;;15.70;79.00;;;;;;5046988;28;20174;-57
2023/08/03 04:13:22;;;;;;;5.40;1.60;;;15.80;79.90;;;;;;5063164;28;20179;-58
2023/08/03 04:15:48;;;;;;;4.47;1.60;;;15.70;79.90;;;;;;5058663;28;20265;-57
2023/08/03 04:18:14;;;;;;;5.67;1.63;;;15.80;80.20;;;;;;5066141;28;20232;-59
2023/08/03 04:20:40;;;;;;;6.00;1.20;;;15.80;79.70;;;;;;5064886;28;20520;-57
2023/08/03 04:23:05;;;;;;;5.40;1.40;;;15.80;79.30;;;;;;5063402;28;20458;-58
2023/08/03 04:25:31;;;;;;;5.97;1.30;;;15.70;79.10;;;;;;5056546;28;20171;-57
2023/08/03 04:27:57;;;;;;;3.33;1.17;;;15.70;78.60;;;;;;5057962;28;20188;-57
2023/08/03 04:30:23;;;;;;;13.93;1.90;;;15.70;79.80;;;;;;5052380;28;20202;-58
2023/08/03 04:32:49;;;;;;;4.67;1.33;;;15.70;80.60;;;;;;5058795;28;20511;-57
2023/08/03 04:35:14;;;;;;;4.87;1.30;;;15.70;79.50;;;;;;5062974;28;20191;-57
2023/08/03 04:37:40;;;;;;;5.10;1.40;;;15.70;78.00;;;;;;5060962;28;20197;-58
2023/08/03 04:40:06;;;;;;;7.77;2.20;;;15.70;78.10;;;;;;5058622;28;20183;-57
2023/08/03 04:42:32;;;;;;;3.40;1.23;;;15.70;77.40;;;;;;5064829;28;20202;-58
2023/08/03 04:44:57;;;;;;;2.50;1.27;;;15.80;78.00;;;;;;5064489;28;20515;-57
2023/08/03 04:47:23;;;;;;;6.20;1.57;;;15.80;77.60;;;;;;5068654;28;20838;-58
2023/08/03 04:49:48;;;;;;;2.67;1.10;;;15.80;77.30;;;;;;5055379;28;20653;-57
2023/08/03 04:52:14;;;;;;;3.23;1.50;;;15.80;74.00;;;;;;5055639;28;20210;-57
2023/08/03 04:54:40;;;;;;;3.13;1.10;;;15.80;73.80;;;;;;5056856;28;20175;-59
2023/08/03 04:57:05;;;;;;;2.50;1.30;;;15.80;73.80;;;;;;5057113;28;20179;-57
2023/08/03 04:59:31;;;;;;;3.53;1.20;;;15.90;72.90;;;;;;5060509;28;20199;-58
2023/08/03 05:01:56;;;;;;;5.53;1.70;;;15.90;72.20;;;;;;5055102;28;20234;-57
2023/08/03 05:04:22;;;;;;;4.20;1.30;;;16.00;72.30;;;;;;5054256;28;20198;-56
2023/08/03 05:06:47;;;;;;;4.73;1.33;;;16.00;70.10;;;;;;5061497;28;20719;-58
2023/08/03 05:09:13;;;;;;;5.30;0.90;;;16.10;70.20;;;;;;5065937;28;20178;-57
2023/08/03 05:11:39;;;;;;;1.53;1.03;;;16.10;68.30;;;;;;5063515;28;20572;-57
2023/08/03 05:14:04;;;;;;;7.43;1.20;;;16.20;68.00;;;;;;5062742;28;20179;-57
2023/08/03 05:16:30;;;;;;;4.73;1.50;;;16.20;66.90;;;;;;5056859;28;20179;-57
2023/08/03 05:18:55;;;;;;;5.40;1.50;;;16.30;67.90;;;;;;5065118;28;20769;-57
2023/08/03 05:21:21;;;;;;;1.87;1.00;;;16.40;68.40;;;;;;5060708;28;20195;-57
2023/08/03 05:23:47;;;;;;;5.00;1.43;;;16.50;68.20;;;;;;5057220;28;20175;-57
2023/08/03 05:26:13;;;;;;;2.43;1.23;;;16.50;67.80;;;;;;5068078;28;20179;-57
2023/08/03 05:28:39;;;;;;;5.47;1.57;;;16.60;66.60;;;;;;5050441;28;20173;-58
2023/08/03 05:31:05;;;;;;;3.53;1.27;;;16.60;64.50;;;;;;5053546;28;20441;-58
2023/08/03 05:33:34;;;;;;;3.80;1.63;;;16.70;64.60;;;;;;5065581;28;20177;-56
2023/08/03 05:36:00;;;;;;;5.70;1.40;;;16.70;63.70;;;;;;5053301;28;20425;-56
2023/08/03 05:38:25;;;;;;;1.77;1.17;;;16.80;63.70;;;;;;5059683;28;20494;-57
2023/08/03 05:40:51;;;;;;;2.40;1.00;;;16.80;63.50;;;;;;5063161;28;20285;-57
2023/08/03 05:43:17;;;;;;;3.03;0.90;;;16.90;64.70;;;;;;5065080;28;20225;-59
2023/08/03 05:45:44;;;;;;;4.20;1.20;;;16.90;61.50;;;;;;5049229;28;20179;-58
2023/08/03 05:48:16;;;;;;;1.80;0.90;;;17.00;60.60;;;;;;5057142;28;20604;-58
2023/08/03 05:50:46;;;;;;;2.83;1.10;;;17.10;60.70;;;;;;5056710;28;20431;-58
2023/08/03 05:53:12;;;;;;;1.53;1.00;;;17.10;60.60;;;;;;5057790;28;20463;-56
2023/08/03 05:55:39;;;;;;;2.10;0.90;;;17.10;60.00;;;;;;5062254;28;20874;-56
2023/08/03 05:58:05;;;;;;;2.80;1.20;;;17.10;59.80;;;;;;5047414;28;21266;-55
2023/08/03 06:00:31;;;;;;;1.57;1.03;;;17.20;61.10;;;;;;5056771;28;20431;-57
2023/08/03 06:02:58;;;;;;;3.97;1.40;;;17.20;60.60;;;;;;5057808;28;20456;-57
2023/08/03 06:05:33;;;;;;;7.93;1.13;;;17.30;60.70;;;;;;5063783;28;20186;-57
2023/08/03 06:07:58;;;;;;;4.73;1.10;;;17.40;61.10;;;;;;5066351;28;20807;-57
2023/08/03 06:10:24;;;;;;;2.63;0.90;;;17.40;59.70;;;;;;5055081;28;20440;-58
2023/08/03 06:12:49;;;;;;;2.40;1.10;;;17.50;59.70;;;;;;5059893;28;20553;-56
2023/08/03 06:15:18;;;;;;;1.20;1.00;;;17.50;59.50;;;;;;5062332;28;20806;-57
2023/08/03 06:17:43;;;;;;;4.30;1.60;;;17.40;59.00;;;;;;5067132;28;20182;-57
2023/08/03 06:20:12;;;;;;;4.53;1.17;;;17.40;59.40;;;;;;5061535;28;20467;-57
2023/08/03 06:22:37;;;;;;;6.83;1.10;;;17.40;59.20;;;;;;5059679;28;20652;-56
2023/08/03 06:25:09;;;;;;;5.57;1.27;;;17.50;59.40;;;;;;5061987;28;20444;-56
2023/08/03 06:27:34;;;;;;;6.50;0.97;;;17.50;59.90;;;;;;5057174;28;20190;-57
2023/08/03 06:30:00;;;;;;;2.30;0.80;;;17.60;59.70;;;;;;5066808;28;21195;-57
2023/08/03 06:32:29;;;;;;;3.10;1.00;;;17.60;59.90;;;;;;5066917;28;20210;-57
2023/08/03 06:34:56;;;;;;;5.93;1.20;;;17.60;59.50;;;;;;5058258;28;20178;-56
2023/08/03 06:37:21;;;;;;;5.70;1.10;;;17.70;59.30;;;;;;5067311;28;20823;-56
2023/08/03 06:39:50;;;;;;;2.20;1.00;;;17.80;59.70;;;;;;5066168;28;20444;-55
2023/08/03 06:42:16;;;;;;;4.43;1.10;;;17.80;58.70;;;;;;5067290;28;20210;-56
2023/08/03 06:44:41;;;;;;;3.90;1.00;;;17.80;58.60;;;;;;5061918;28;20926;-57
2023/08/03 06:47:07;;;;;;;1.90;1.00;;;17.90;59.70;;;;;;5062323;28;20182;-55
2023/08/03 06:49:33;;;;;;;7.10;1.00;;;18.00;59.90;;;;;;5064174;28;20212;-57
2023/08/03 06:51:58;;;;;;;1.53;0.90;;;18.10;59.10;;;;;;5061610;28;20210;-56
2023/08/03 06:54:25;;;;;;;2.40;0.90;;;18.10;58.80;;;;;;5063378;28;20174;-55
2023/08/03 06:56:50;;;;;;;2.70;1.10;;;18.20;58.50;;;;;;5061257;28;20187;-57
2023/08/03 06:59:21;;;;;;;6.83;1.13;;;18.20;57.60;;;;;;5062179;28;21014;-57
2023/08/03 07:01:47;;;;;;;3.30;1.10;;;18.20;58.60;;;;;;5061547;28;20210;-57
2023/08/03 07:04:13;;;;;;;2.73;1.00;;;18.30;58.20;;;;;;5061955;28;20965;-56
2023/08/03 07:06:38;;;;;;;2.67;1.10;;;18.30;58.00;;;;;;5067035;28;20481;-56
2023/08/03 07:09:04;;;;;;;2.37;1.20;;;18.40;58.10;;;;;;5067602;28;20318;-57
2023/08/03 07:11:30;;;;;;;3.23;1.13;;;18.40;57.40;;;;;;5064406;28;20194;-57
2023/08/03 07:13:56;;;;;;;2.80;1.30;;;18.30;56.70;;;;;;5062291;28;20205;-57
2023/08/03 07:16:23;;;;;;;3.10;1.10;;;18.20;57.50;;;;;;5059825;28;20424;-56
2023/08/03 07:18:48;;;;;;;4.13;1.40;;;18.10;56.90;;;;;;5059350;28;20182;-56
2023/08/03 07:21:14;;;;;;;4.40;1.10;;;18.00;56.90;;;;;;5059382;28;20447;-57
2023/08/03 07:23:40;;;;;;;3.90;1.20;;;17.90;57.50;;;;;;5058591;28;20217;-56
2023/08/03 07:26:14;;;;;;;1.90;0.90;;;17.90;57.40;;;;;;5063091;28;20174;-57
2023/08/03 07:28:40;;;;;;;2.23;1.10;;;18.00;57.70;;;;;;5060367;28;20177;-56
2023/08/03 07:31:12;;;;;;;3.10;1.07;;;18.00;57.50;;;;;;5059421;28;20448;-56
2023/08/03 07:33:37;;;;;;;3.57;1.10;;;18.00;57.50;;;;;;5054524;28;20174;-57
2023/08/03 07:36:03;;;;;;;2.43;1.30;;;18.00;57.80;;;;;;5056721;28;20456;-57
2023/08/03 07:38:28;;;;;;;2.87;1.13;;;18.00;58.10;;;;;;5056591;28;20172;-57
2023/08/03 07:40:54;;;;;;;5.13;1.20;;;18.10;57.60;;;;;;5059996;28;20665;-57
2023/08/03 07:43:19;;;;;;;4.27;1.33;;;18.10;57.80;;;;;;5064712;28;20206;-57
2023/08/03 07:45:45;;;;;;;7.20;1.17;;;18.10;59.10;;;;;;5054905;28;20681;-56
2023/08/03 07:48:11;;;;;;;1.30;1.00;;;18.10;58.00;;;;;;5068814;28;20174;-56
2023/08/03 07:50:36;;;;;;;3.20;1.20;;;18.00;58.30;;;;;;5058565;28;20171;-56
2023/08/03 07:53:03;;;;;;;2.30;0.80;;;17.90;59.60;;;;;;5052045;28;20595;-57
2023/08/03 07:55:32;;;;;;;4.23;0.90;;;17.90;61.00;;;;;;5063312;28;20519;-57
2023/08/03 07:57:57;;;;;;;3.60;1.27;;;17.80;60.50;;;;;;5066462;28;20428;-57
2023/08/03 08:00:23;;;;;;;3.03;1.10;;;17.80;60.80;;;;;;5062940;28;20475;-57
2023/08/03 08:02:48;;;;;;;3.60;1.10;;;18.00;61.30;;;;;;5065776;28;20251;-56
2023/08/03 08:05:14;;;;;;;2.60;1.10;;;18.10;60.70;;;;;;5062870;28;20739;-57
2023/08/03 08:07:40;;;;;;;3.33;0.93;;;18.20;59.50;;;;;;5070370;28;20175;-57
2023/08/03 08:10:06;;;;;;;4.00;1.00;;;18.20;60.00;;;;;;5066105;28;20178;-57
2023/08/03 08:12:31;;;;;;;2.00;0.97;;;18.20;61.40;;;;;;5064297;28;20191;-58
2023/08/03 08:14:57;;;;;;;2.90;1.00;;;18.20;61.30;;;;;;5066547;28;20436;-56
2023/08/03 08:17:22;;;;;;;9.80;1.60;;;18.30;62.00;;;;;;5066279;28;20744;-57
2023/08/03 08:19:48;;;;;;;4.83;1.37;;;18.30;60.80;;;;;;5067085;28;20186;-56
2023/08/03 08:22:14;;;;;;;1.93;1.20;;;18.40;60.70;;;;;;5064208;28;20210;-56
2023/08/03 08:24:39;;;;;;;3.60;1.03;;;18.60;61.90;;;;;;5068393;28;20224;-56
2023/08/03 08:27:05;;;;;;;4.83;1.33;;;18.60;59.80;;;;;;5064693;28;20647;-56
2023/08/03 08:29:31;;;;;;;2.10;1.00;;;18.70;58.50;;;;;;5067658;28;20182;-56
2023/08/03 08:31:56;;;;;;;3.70;0.80;;;18.70;58.60;;;;;;5061674;28;20313;-57
2023/08/03 08:34:22;;;;;;;4.43;1.00;;;18.70;58.80;;;;;;5056338;28;20176;-56
2023/08/03 08:36:51;;;;;;;2.37;1.07;;;18.70;57.30;;;;;;5057233;28;20265;-56
2023/08/03 08:39:16;;;;;;;3.90;0.80;;;18.60;57.80;;;;;;5065711;28;20178;-57
2023/08/03 08:41:42;;;;;;;1.40;0.80;;;18.60;58.10;;;;;;5064571;28;21354;-57
2023/08/03 08:44:13;;;;;;;1.90;0.93;;;18.70;57.50;;;;;;5069530;28;20200;-57
2023/08/03 08:46:41;;;;;;;11.70;4.97;;;18.70;57.60;;;;;;5065168;28;20182;-56
2023/08/03 08:49:07;;;;;;;4.83;1.47;;;18.70;58.20;;;;;;5062260;28;20451;-57
2023/08/03 08:51:33;;;;;;;3.23;0.97;;;18.70;57.90;;;;;;5063528;28;20893;-57
2023/08/03 08:53:58;;;;;;;2.90;0.80;;;18.80;58.00;;;;;;5063970;28;20662;-57
2023/08/03 08:56:24;;;;;;;4.00;0.93;;;18.80;57.90;;;;;;5060670;28;20467;-57
2023/08/03 08:58:50;;;;;;;1.50;1.03;;;18.90;58.80;;;;;;5058898;28;20647;-57
2023/08/03 09:01:15;;;;;;;5.40;1.30;;;19.00;58.10;;;;;;5056880;28;20166;-58
2023/08/03 09:03:51;;;;;;;3.47;1.00;;;19.00;56.60;;;;;;5060021;28;20183;-59
2023/08/03 09:06:19;;;;;;;3.67;1.20;;;19.00;56.90;;;;;;5060672;28;20182;-57
2023/08/03 09:08:58;;;;;;;1.93;0.97;;;18.90;56.30;;;;;;5057843;28;20494;-57
2023/08/03 09:11:37;;;;;;;1.97;1.10;;;18.80;56.90;;;;;;5052637;28;20456;-58
2023/08/03 09:14:08;;;;;;;2.50;1.00;;;18.70;57.50;;;;;;5057077;28;20425;-58
2023/08/03 09:16:34;;;;;;;2.57;0.90;;;18.70;58.20;;;;;;5054033;28;20523;-57
2023/08/03 09:19:00;;;;;;;4.60;1.53;;;18.80;58.70;;;;;;5057159;28;20436;-58
2023/08/03 09:21:26;;;;;;;6.00;1.30;;;18.80;58.60;;;;;;5061762;28;20456;-58
2023/08/03 09:23:52;;;;;;;3.40;1.03;;;18.80;58.30;;;;;;5056975;28;20486;-58
2023/08/03 09:26:24;;;;;;;2.23;1.10;;;18.80;58.60;;;;;;5048777;28;20919;-58
2023/08/03 09:28:50;;;;;;;1.57;0.80;;;18.90;57.20;;;;;;5057085;28;20182;-57
2023/08/03 09:31:25;;;;;;;2.50;1.20;;;19.00;57.90;;;;;;5057132;28;20949;-58
2023/08/03 09:33:55;;;;;;;2.33;0.90;;;19.10;58.00;;;;;;5062034;28;20421;-57
2023/08/03 09:36:21;;;;;;;2.63;0.77;;;19.10;57.00;;;;;;5064470;28;20420;-58
2023/08/03 09:38:47;;;;;;;3.50;1.00;;;19.10;57.30;;;;;;5062915;28;20417;-58
2023/08/03 09:41:13;;;;;;;2.50;1.20;;;19.00;56.80;;;;;;5062187;28;20237;-56
2023/08/03 09:43:47;;;;;;;2.80;0.90;;;19.10;57.50;;;;;;5061640;28;20569;-58
2023/08/03 09:46:14;;;;;;;3.60;1.00;;;19.10;56.40;;;;;;5060728;28;21035;-58
2023/08/03 09:48:39;;;;;;;2.33;0.83;;;19.20;57.00;;;;;;5061697;28;20957;-58
2023/08/03 09:51:06;;;;;;;2.20;1.10;;;19.30;57.10;;;;;;5060059;28;20917;-58
2023/08/03 09:53:37;;;;;;;2.20;0.77;;;19.30;56.60;;;;;;5052375;28;20174;-58
2023/08/03 09:56:05;;;;;;;1.83;1.00;;;19.30;56.80;;;;;;5060245;28;20428;-58
2023/08/03 09:58:43;;;;;;;4.30;1.20;;;19.30;56.10;;;;;;5055371;28;20496;-58
2023/08/03 10:01:11;;;;;;;2.60;0.83;;;19.40;56.40;;;;;;5050025;28;20477;-58
2023/08/03 10:03:40;;;;;;;1.47;0.90;;;19.40;55.30;;;;;;5052620;28;20468;-57
2023/08/03 10:06:17;;;;;;;1.93;0.80;;;19.50;55.90;;;;;;5054634;28;20431;-57
2023/08/03 10:09:13;;;;;;;1.50;0.73;;;19.50;55.20;;;;;;5059732;28;20589;-58
2023/08/03 10:11:46;;;;;;;2.17;0.90;;;19.40;54.60;;;;;;5053756;28;20448;-58
2023/08/03 10:14:15;;;;;;;1.20;0.80;;;19.40;54.20;;;;;;5053915;28;21022;-56
2023/08/03 10:16:42;;;;;;;2.50;1.27;;;19.40;54.80;;;;;;5053378;28;20487;-58
2023/08/03 10:19:08;;;;;;;2.20;1.20;;;19.60;54.60;;;;;;5059730;28;21098;-58
2023/08/03 10:21:35;;;;;;;0.90;0.77;;;19.90;55.70;;;;;;5051372;28;20447;-57
2023/08/03 10:24:16;;;;;;;3.33;0.80;;;20.20;55.30;;;;;;5064456;28;20436;-57
2023/08/03 10:26:42;;;;;;;1.40;0.80;;;20.40;53.30;;;;;;5058821;28;20451;-57
2023/08/03 10:29:08;;;;;;;0.80;0.80;;;20.50;54.40;;;;;;5055676;28;20428;-57
2023/08/03 10:31:51;;;;;;;3.00;0.90;;;20.60;53.70;;;;;;5055224;28;20484;-57
2023/08/03 10:34:27;;;;;;;1.40;0.80;;;20.70;53.20;;;;;;5053564;28;21144;-57
2023/08/03 10:36:55;;;;;;;2.50;0.80;;;20.70;53.20;;;;;;5063401;28;20416;-57
2023/08/03 10:39:49;;;;;;;1.90;0.83;;;20.90;53.30;;;;;;5056842;28;20464;-57
2023/08/03 10:42:41;;;;;;;2.17;1.07;;;21.00;53.10;;;;;;5060365;28;20644;-57
2023/08/03 10:45:22;;;;;;;6.43;1.00;;;21.30;53.70;;;;;;5053312;28;20527;-58
2023/08/03 10:47:48;;;;;;;2.40;0.80;;;21.50;53.50;;;;;;5044631;28;20511;-57
2023/08/03 10:50:14;;;;;;;0.90;0.70;;;21.70;52.80;;;;;;5058845;28;20463;-58
2023/08/03 10:52:40;;;;;;;0.70;0.70;;;21.70;51.30;;;;;;5061365;28;20443;-56
2023/08/03 10:55:25;;;;;;;1.77;0.80;;;21.70;49.70;;;;;;5062557;28;20528;-58
2023/08/03 10:57:51;;;;;;;0.70;0.70;;;21.60;49.20;;;;;;5058707;28;20718;-57
2023/08/03 11:00:17;;;;;;;2.87;0.87;;;21.60;48.90;;;;;;5053921;28;20525;-57
2023/08/03 11:02:43;;;;;;;1.70;0.70;;;21.40;49.10;;;;;;5062628;28;20198;-58
2023/08/03 11:05:11;;;;;;;0.83;0.70;;;21.30;49.70;;;;;;5055782;28;20178;-58
2023/08/03 11:07:42;;;;;;;0.70;0.60;;;21.30;50.70;;;;;;5055972;28;20413;-58
2023/08/03 11:10:14;;;;;;;1.80;0.73;;;21.50;51.90;;;;;;5058630;28;20463;-57
2023/08/03 11:12:41;;;;;;;1.60;1.20;;;21.60;50.90;;;;;;5056151;28;20864;-58
2023/08/03 11:15:07;;;;;;;0.90;0.60;;;21.80;50.20;;;;;;5063018;28;20511;-56
2023/08/03 11:17:35;;;;;;;1.00;0.60;;;21.90;49.60;;;;;;5058494;28;22773;-56
2023/08/03 11:20:07;;;;;;;1.90;1.00;;;22.10;51.40;;;;;;5060582;28;20425;-57
2023/08/03 11:22:33;;;;;;;1.70;0.90;;;22.40;50.80;;;;;;5059679;28;20464;-58
2023/08/03 11:25:03;;;;;;;0.70;0.60;;;22.60;49.10;;;;;;5055449;28;20446;-58
2023/08/03 11:27:30;;;;;;;8.63;0.87;;;22.60;48.40;;;;;;5067215;28;20514;-58
2023/08/03 11:29:56;;;;;;;2.20;0.80;;;22.60;49.10;;;;;;5062932;28;20424;-58
2023/08/03 11:32:30;;;;;;;1.20;0.70;;;22.60;48.30;;;;;;5060505;28;20515;-57
2023/08/03 11:35:04;;;;;;;2.70;0.67;;;22.60;48.60;;;;;;5058008;28;20495;-59
2023/08/03 11:37:30;;;;;;;0.87;0.67;;;22.60;49.00;;;;;;5055642;28;20444;-57
2023/08/03 11:39:57;;;;;;;0.70;0.70;;;22.50;49.20;;;;;;5059303;28;20429;-58
2023/08/03 11:42:23;;;;;;;1.97;0.80;;;22.60;49.80;;;;;;5057330;28;20752;-58
2023/08/03 11:44:48;;;;;;;1.77;0.80;;;22.70;49.70;;;;;;5064264;28;20434;-58
2023/08/03 11:47:14;;;;;;;2.40;0.70;;;22.70;48.60;;;;;;5064345;28;21115;-58
2023/08/03 11:49:40;;;;;;;1.10;0.67;;;22.70;49.10;;;;;;5059679;28;20658;-59
2023/08/03 11:52:05;;;;;;;1.57;1.10;;;22.80;48.50;;;;;;5054531;28;20572;-57
2023/08/03 11:54:37;;;;;;;2.00;1.00;;;22.80;47.80;;;;;;5059408;28;20186;-58
2023/08/03 11:59:49;;;;;;;2.10;0.60;;;22.80;48.10;;;;;;5059870;28;20823;-57
2023/08/03 12:02:15;;;;;;;1.30;0.70;;;22.80;49.30;;;;;;5056000;28;20452;-59
2023/08/03 12:04:42;;;;;;;0.90;0.70;;;23.00;49.40;;;;;;5058641;28;20432;-59
2023/08/03 12:07:07;;;;;;;2.63;0.80;;;23.00;48.20;;;;;;5059632;28;20440;-60
2023/08/03 12:09:39;;;;;;;2.30;0.77;;;23.00;47.70;;;;;;5062707;28;20421;-63
2023/08/03 12:12:07;;;;;;;3.17;1.17;;;23.00;47.70;;;;;;5059783;28;20202;-61
2023/08/03 12:14:32;;;;;;;4.20;1.00;;;23.10;47.70;;;;;;5055705;28;20954;-60
2023/08/03 12:16:58;;;;;;;2.57;1.07;;;23.10;47.40;;;;;;5054202;28;20436;-60
2023/08/03 12:19:27;;;;;;;1.93;0.80;;;23.20;48.50;;;;;;5060600;28;20171;-60
2023/08/03 12:21:53;;;;;;;2.10;1.10;;;23.20;47.70;;;;;;5061790;28;20237;-60
2023/08/03 12:24:19;;;;;;;1.60;0.80;;;23.20;47.80;;;;;;5052791;28;20456;-62
2023/08/03 12:26:44;;;;;;;2.80;1.10;;;23.30;48.00;;;;;;5048919;28;20254;-61
2023/08/03 12:29:10;;;;;;;1.73;1.23;;;23.40;48.20;;;;;;5057029;28;20680;-61
2023/08/03 12:31:36;;;;;;;7.17;1.10;;;23.30;47.10;;;;;;5058250;28;20732;-61
2023/08/03 12:34:02;;;;;;;1.50;1.00;;;23.30;47.20;;;;;;5059900;28;20185;-61
2023/08/03 12:36:27;;;;;;;2.27;0.80;;;23.40;47.30;;;;;;5061411;28;20507;-62
2023/08/03 12:38:53;;;;;;;1.40;0.83;;;23.60;47.80;;;;;;5057076;28;20178;-61
2023/08/03 12:41:19;;;;;;;1.80;0.87;;;23.80;47.00;;;;;;5059133;28;20171;-61
2023/08/03 12:43:48;;;;;;;1.47;0.90;;;23.90;46.60;;;;;;5061368;28;20269;-62
2023/08/03 12:46:14;;;;;;;1.00;0.80;;;23.90;46.10;;;;;;5060403;28;20777;-60